Challis, Idaho
Current Conditions -  °F | °C
As of 11:55 PM on Saturday 25 Oct 2014 (Local Time) from KLLJ Reporting Station
Broken Clouds Broken Clouds  
Wind Chill: 46°   Ceiling: 5500
Heat Index: 49°   Visibility: 10mi
Dew Point: 37°   Wind: 7mph
Humidity: 64%   Direction: 340°NNW
Pressure: 29.87"   Gusts: NA
Location:  44.5°N, 114.23°W
Report Text: KLLJ 260555Z AUTO 34006KT 10SM FEW044 BKN055 BKN100 09/03 A2987 RMK AO2 SLP088 60000 T00940028 10183 20089 50014
Loading
Personal Weather Stations






























Interactive Weather Map
Tropical Storm Tracking
New forecast layout! Learn more

10-Day Weather Forecast

Advertisements
Track Severe Weather on mobile